x

Cape Edgecumbe - 25nm Ssw Of Cape Edgecumbe, Ak (46084) Wave Buoy

11:50am - Sat 19th Apr 2014 All times are AKDT. -8 hours from GMT.

  • Sig Wave height 14.1ft
  • Peak Period 12s
  • Average Period 8s
  • Wind
    25mph, 34mph gusts
  • Sea Temp 44°f
  • Air Temp 45°f
  • Sea Pressure 993.2mb
  • Cape Edgecumbe - 25nm Ssw Of Cape Edgecumbe, Ak
  • Cape Edgecumbe - 25nm Ssw Of Cape Edgecumbe, Ak

More Historic Weather Station data

Upgrade to MSW Pro to gain access to the past 30 days of data for over 8000 Wavebouys and Weather Stations around the globe.

Join Pro

Comparision Forecast

View Surf forecast
   
Sat 04/19 11:50am 14ft 12s 8s 25 34 mph 993.2mb 44f 45f
10:50am 13ft 11s 8s 25 29 mph 993.5mb 44f 45f
9:50am 12ft 12s 7s 22 29 mph 993.8mb 44f 45f
8:50am 12ft 11s 7s 25 31 mph 994.1mb 44f 45f
7:50am 10ft 10s 6s 25 31 mph 994.4mb 44f 45f
6:50am 8.5ft 9s 6s 27 31 mph 994.8mb 44f 45f
5:50am 8ft 8s 6s 22 27 mph 995.3mb 44f 45f
4:50am 7ft 8s 5s 25 29 mph 995.9mb 44f 45f
3:50am 7ft 8s 5s 22 25 mph 996.6mb 44f 45f
2:50am 6.5ft 9s 5s 20 25 mph 997.7mb 44f 45f
1:50am 6ft 8s 5s 22 25 mph 998.8mb 44f 45f
12:50am 6.5ft 8s 5s 25 27 mph 999.9mb 44f 45f
Fri 04/18 11:50pm 7ft 7s 6s 20 25 mph 1000.9mb 44f 45f
10:50pm 7ft 8s 6s 20 22 mph 1001.9mb 44f 45f
9:50pm 7.5ft 7s 6s 18 25 mph 1002.8mb 44f 45f
8:50pm 6.5ft 6s 5s 20 25 mph 1003.5mb 44f 45f
7:50pm 6.5ft 6s 5s 18 22 mph 1004mb 44f 45f
6:50pm 7ft 6s 5s 18 20 mph 1004.6mb 44f 45f
5:50pm 7ft 6s 5s 20 25 mph 1005.4mb 44f 45f
4:50pm 7.5ft 5s 5s 25 31 mph 1006mb 44f 44f
3:50pm 7ft 5s 5s 22 27 mph 1006.7mb 44f 44f
2:50pm 7ft 10s 5s 25 31 mph 1007.3mb 44f 44f
1:50pm 7ft 8s 5s 25 29 mph 1007.9mb 44f 44f
12:50pm 8ft 9s 6s 20 25 mph 1008.4mb 44f 43f
11:50am 8ft 9s 6s 18 22 mph 1008.6mb 44f 43f
10:50am 7ft 9s 6s 16 18 mph 1008.6mb 44f 42f
9:50am 8ft 9s 7s 18 20 mph 1008.3mb 44f 43f
8:50am 8ft 9s 7s 11 13 mph 1008mb 44f 43f
7:50am 8.5ft 10s 7s 9 13 mph 1007.8mb 44f 43f
6:50am 8ft 9s 6s 13 16 mph 1007.4mb 44f 42f
5:50am 9ft 9s 7s 16 18 mph 1006.8mb 44f 43f
4:50am 9ft 10s 7s 16 20 mph 1006.1mb 44f 43f
3:50am 9ft 10s 7s 13 18 mph 1005.2mb 44f 43f
2:50am 9ft 9s 7s 16 20 mph 1004.5mb 44f 42f
1:50am 9ft 9s 7s 16 20 mph 1003.8mb 44f 42f
12:50am 8ft 10s 7s 18 22 mph 1002.5mb 44f 42f
Thu 04/17 11:50pm 9ft 9s 8s 13 18 mph 1001.7mb 44f 42f
10:50pm 9ft 9s 7s 16 18 mph 1000.7mb 44f 43f
9:50pm 8ft 9s 7s 13 16 mph 999.7mb 44f 43f
8:50pm 8ft 9s 8s 11 13 mph 998.8mb 44f 43f
7:50pm 7ft 10s 7s 9 11 mph 997.7mb 44f 43f
6:50pm 7ft 10s 7s 11
mph
996.6mb 44f 43f
5:50pm 6ft 11s 7s 7 9 mph 995.9mb 44f 43f
4:50pm 6ft 9s 6s 9 11 mph 995.2mb 44f 44f
3:50pm 6ft 11s 6s 13 16 mph 994.7mb 44f 44f
2:50pm 6.5ft 11s 6s 16 18 mph 994.3mb 44f 44f
1:50pm 6.5ft 11s 6s 18 20 mph 994mb 44f 44f
12:50pm 5.5ft 10s 6s 9 11 mph 993.7mb 44f 43f
11:50am 5ft 10s 6s 4 7 mph 993.3mb 44f 43f
10:50am 6ft 10s 6s 4 7 mph 992.6mb 44f 43f
9:50am 6ft 11s 6s 4 7 mph 992.1mb 45f 43f
8:50am 6ft 11s 6s 7 9 mph 991.9mb 44f 43f
7:50am 6ft 11s 6s 11 13 mph 991.7mb 44f 44f
6:50am 7ft 10s 7s 9 11 mph 991.8mb 44f 44f
5:50am 7ft 11s 6s 11
mph
991.8mb 44f 44f
4:50am 6.5ft 11s 6s 16 18 mph 992.2mb 44f 44f
3:50am 6.5ft 11s 6s 16 20 mph 992.5mb 44f 44f
2:50am 6ft 11s 6s 18 22 mph 992.9mb 44f 44f
1:50am 6.5ft 11s 6s 20 27 mph 993.6mb 45f 44f
12:50am 5.5ft 10s 6s 20 25 mph 994.3mb 45f 44f
Wed 04/16 11:50pm 5ft 11s 6s 11 16 mph 995.3mb 45f 44f
10:50pm 6ft 11s 7s 9 11 mph 996.2mb 44f 44f
9:50pm 6ft 11s 7s 4 9 mph 997.2mb 45f 44f
8:50pm 5ft 10s 6s 7 9 mph 998.2mb 45f 44f
7:50pm 6ft 11s 7s 9 11 mph 999.1mb 44f 45f
6:50pm 5ft 11s 7s 9 11 mph 1000mb 44f 45f
5:50pm 5.5ft 11s 7s 9 11 mph 1001mb 44f 46f
4:50pm 6ft 11s 7s 9 11 mph 1002.2mb 44f 45f
3:50pm 6ft 12s 7s 7
mph
1003.4mb 44f 45f
2:50pm 6ft 11s 6s 9 11 mph 1004.3mb 44f 45f
1:50pm 6.5ft 11s 7s 9 11 mph 1005.3mb 44f 45f
12:50pm 6ft 11s 7s 11 13 mph 1006.3mb 44f 45f
11:50am 7ft 11s 6s 13 16 mph 1007mb 44f 44f
10:50am 6.5ft 11s 6s 18 22 mph 1007.7mb 44f 44f
9:50am 6ft 11s 6s 20 22 mph 1008.4mb 44f 44f
8:50am 6ft 11s 6s 13 16 mph 1009mb 44f 44f
7:50am 6.5ft 12s 6s 16 20 mph 1009.2mb 44f 44f
6:50am 6ft 11s 6s 20 22 mph 1009.7mb 44f 43f
5:50am 6ft 12s 6s 20 25 mph 1010.1mb 44f 43f
4:50am 7.5ft 11s 7s 16 18 mph 1010.4mb 44f 43f
3:50am 7.5ft 12s 7s 9 13 mph 1010.8mb 44f 44f
2:50am 8.5ft 12s 8s 11 16 mph 1011.3mb 44f 43f
1:50am 8ft 12s 7s 11 13 mph 1011.8mb 44f 44f
12:50am 8ft 12s 7s 18 22 mph 1012mb 44f 44f
Tue 04/15 11:50pm 8ft 11s 8s 16 20 mph 1012.2mb 44f 44f
10:50pm 8ft 13s 7s 18 20 mph 1012.6mb 44f 44f
9:50pm 7ft 12s 7s 13 16 mph 1012.7mb 44f 44f
8:50pm 7.5ft 12s 8s 13 18 mph 1012.7mb 44f 44f